Detroit, Michigan
Traffic Map
Current Weather Conditions
Detroit, Michigan
Few Clouds
Few Clouds
14°
Feels Like: 14°
Wind Chill: 14° Ceiling: Unl
Heat Index: 14° Visibility: 10mi
Dew Point: 13° Wind: 5mph
Humidity: 94% Direction: 90° (E)
Pressure: 30.03in Gusts: 0mph
Raw Report DataCYQG 020000Z 09004KT 10SM FEW025 14/13 A3003 RMK CU1 SLP170
Traffic Incident Summary
Active as of:
Severity:
Category:
InformationThere was an issue retrieving the traffic information for this location. Please try a different location or try again shortly.
Advertisements
Track Severe Weather on mobile